Time;durP1;ratioP1;P1;durP2;ratioP2;P2;SDS_P1;SDS_P2;PMS_P1;PMS_P2;Temp;Humidity;BMP_temperature;BMP_pressure;BME280_temperature;BME280_humidity;BME280_pressure;Samples;Min_cycle;Max_cycle;Signal;HPM_P1;HPM_P2
2022/03/12 00:00:00;;;;;;;4.00;1.70;;;;;;;;;;4942433;28;20232;-61
2022/03/12 00:02:29;;;;;;;2.50;2.20;;;;;;;;;;4943696;29;20218;-60
2022/03/12 00:04:56;;;;;;;2.87;1.53;;;;;;;;;;4943178;29;20750;-60
2022/03/12 00:07:23;;;;;;;3.13;2.73;;;;;;;;;;4942997;29;20200;-60
2022/03/12 00:09:52;;;;;;;3.40;2.23;;;;;;;;;;4946222;28;20253;-60
2022/03/12 00:12:20;;;;;;;2.10;1.90;;;;;;;;;;4946568;29;20307;-60
2022/03/12 00:14:48;;;;;;;4.23;2.10;;;;;;;;;;4942689;29;20225;-61
2022/03/12 00:17:17;;;;;;;3.33;2.07;;;;;;;;;;4936689;29;20208;-60
2022/03/12 00:19:44;;;;;;;10.13;1.90;;;;;;;;;;4944274;29;20258;-59
2022/03/12 00:22:12;;;;;;;2.17;1.83;;;;;;;;;;4952303;29;20217;-60
2022/03/12 00:24:40;;;;;;;3.13;2.60;;;;;;;;;;4938072;29;20237;-60
2022/03/12 00:27:10;;;;;;;2.70;1.90;;;;;;;;;;4945193;29;20204;-60
2022/03/12 00:29:37;;;;;;;2.77;2.53;;;;;;;;;;4947839;29;20262;-60
2022/03/12 00:32:06;;;;;;;2.40;2.13;;;;;;;;;;4936900;29;20274;-60
2022/03/12 00:34:34;;;;;;;2.37;2.07;;;;;;;;;;4946683;29;20215;-60
2022/03/12 00:37:01;;;;;;;4.37;2.67;;;;;;;;;;4949500;29;20223;-61
2022/03/12 00:39:28;;;;;;;2.33;1.83;;;;;;;;;;4946203;29;20210;-60
2022/03/12 00:41:55;;;;;;;3.07;2.70;;;;;;;;;;4948803;29;20594;-60
2022/03/12 00:44:23;;;;;;;2.73;1.50;;;;;;;;;;4945976;29;20209;-60
2022/03/12 00:46:50;;;;;;;2.40;2.20;;;;;;;;;;4937007;29;20203;-60
2022/03/12 00:49:17;;;;;;;3.53;1.67;;;;;;;;;;4943468;29;20607;-60
2022/03/12 00:51:45;;;;;;;1.73;1.47;;;;;;;;;;4941801;29;20226;-61
2022/03/12 00:54:12;;;;;;;3.83;2.43;;;;;;;;;;4949659;29;20834;-60
2022/03/12 00:56:39;;;;;;;2.63;2.00;;;;;;;;;;4934771;29;20200;-60
2022/03/12 00:59:07;;;;;;;2.90;1.90;;;;;;;;;;4934785;29;20204;-60
2022/03/12 01:01:35;;;;;;;2.43;1.80;;;;;;;;;;4943420;28;20208;-60
2022/03/12 01:04:02;;;;;;;2.63;2.23;;;;;;;;;;4945147;29;20202;-60
2022/03/12 01:06:30;;;;;;;2.97;1.90;;;;;;;;;;4950836;28;20223;-63
2022/03/12 01:08:57;;;;;;;3.77;2.00;;;;;;;;;;4939877;29;20254;-60
2022/03/12 01:11:24;;;;;;;2.40;2.00;;;;;;;;;;4941586;29;20334;-61
2022/03/12 01:13:51;;;;;;;1.93;1.70;;;;;;;;;;4938334;29;20601;-61
2022/03/12 01:16:18;;;;;;;2.50;2.23;;;;;;;;;;4942078;29;20214;-61
2022/03/12 01:18:47;;;;;;;2.73;2.13;;;;;;;;;;4945656;29;20459;-60
2022/03/12 01:21:16;;;;;;;3.47;1.80;;;;;;;;;;4943812;29;20218;-60
2022/03/12 01:23:43;;;;;;;2.60;2.03;;;;;;;;;;4939821;29;20606;-60
2022/03/12 01:26:11;;;;;;;3.97;2.03;;;;;;;;;;4941149;29;20231;-60
2022/03/12 01:28:39;;;;;;;3.27;1.70;;;;;;;;;;4932406;29;20235;-60
2022/03/12 01:31:06;;;;;;;1.97;1.87;;;;;;;;;;4936260;29;20301;-62
2022/03/12 01:33:33;;;;;;;3.37;1.87;;;;;;;;;;4937412;29;20234;-61
2022/03/12 01:36:01;;;;;;;3.00;1.90;;;;;;;;;;4939753;29;20604;-60
2022/03/12 01:38:29;;;;;;;1.97;1.63;;;;;;;;;;4940608;29;20210;-61
2022/03/12 01:40:56;;;;;;;3.00;1.93;;;;;;;;;;4938186;29;20208;-60
2022/03/12 01:43:24;;;;;;;2.53;2.00;;;;;;;;;;4944472;28;20565;-60
2022/03/12 01:45:51;;;;;;;1.80;1.70;;;;;;;;;;4936404;29;20215;-60
2022/03/12 01:48:18;;;;;;;2.97;1.87;;;;;;;;;;4937571;29;20208;-60
2022/03/12 01:50:45;;;;;;;2.03;1.83;;;;;;;;;;4942953;29;20399;-60
2022/03/12 01:53:13;;;;;;;4.20;2.27;;;;;;;;;;4940078;29;20583;-60
2022/03/12 01:55:40;;;;;;;1.87;1.77;;;;;;;;;;4934224;29;20208;-60
2022/03/12 01:58:09;;;;;;;2.80;2.07;;;;;;;;;;4939542;29;20218;-62
2022/03/12 02:00:44;;;;;;;2.90;2.40;;;;;;;;;;4946433;29;20294;-61
2022/03/12 02:03:11;;;;;;;2.80;1.87;;;;;;;;;;4937769;29;20210;-61
2022/03/12 02:05:38;;;;;;;3.10;1.83;;;;;;;;;;4945305;29;20213;-61
2022/03/12 02:08:06;;;;;;;5.43;2.73;;;;;;;;;;4937404;28;20298;-61
2022/03/12 02:10:36;;;;;;;2.77;2.23;;;;;;;;;;4937917;29;20233;-61
2022/03/12 02:13:03;;;;;;;3.00;2.37;;;;;;;;;;4933514;29;20255;-61
2022/03/12 02:15:31;;;;;;;1.87;1.70;;;;;;;;;;4937208;29;20215;-61
2022/03/12 02:17:58;;;;;;;1.97;1.50;;;;;;;;;;4936117;29;20207;-61
2022/03/12 02:20:25;;;;;;;2.73;1.80;;;;;;;;;;4934238;29;20209;-61
2022/03/12 02:22:53;;;;;;;2.27;1.93;;;;;;;;;;4944047;29;20209;-61
2022/03/12 02:25:27;;;;;;;3.37;1.70;;;;;;;;;;4947250;29;20228;-61
2022/03/12 02:27:54;;;;;;;5.73;2.10;;;;;;;;;;4937333;28;20274;-61
2022/03/12 02:30:22;;;;;;;2.10;1.90;;;;;;;;;;4947354;29;20223;-61
2022/03/12 02:32:53;;;;;;;2.23;1.77;;;;;;;;;;4940686;29;20579;-61
2022/03/12 02:35:24;;;;;;;1.73;1.60;;;;;;;;;;4942500;29;20278;-61
2022/03/12 02:37:52;;;;;;;1.70;1.60;;;;;;;;;;4945146;29;20244;-61
2022/03/12 02:40:20;;;;;;;1.97;1.80;;;;;;;;;;4945271;28;20237;-61
2022/03/12 02:42:49;;;;;;;2.77;1.97;;;;;;;;;;4944044;29;20206;-61
2022/03/12 02:45:16;;;;;;;1.40;1.30;;;;;;;;;;4932834;29;20236;-61
2022/03/12 02:47:44;;;;;;;2.57;2.37;;;;;;;;;;4944540;29;20258;-61
2022/03/12 02:50:12;;;;;;;3.70;2.10;;;;;;;;;;4945886;29;20239;-61
2022/03/12 02:52:41;;;;;;;2.70;2.40;;;;;;;;;;4938470;29;20744;-61
2022/03/12 02:55:12;;;;;;;2.17;1.97;;;;;;;;;;4945825;29;20218;-61
2022/03/12 02:57:40;;;;;;;2.17;1.83;;;;;;;;;;4938265;29;20567;-61
2022/03/12 03:00:10;;;;;;;3.27;2.10;;;;;;;;;;4936755;29;20613;-61
2022/03/12 03:02:40;;;;;;;2.80;1.77;;;;;;;;;;4940352;29;20695;-61
2022/03/12 03:05:13;;;;;;;2.50;2.13;;;;;;;;;;4943562;29;20217;-61
2022/03/12 03:07:41;;;;;;;2.53;1.80;;;;;;;;;;4938852;29;20204;-61
2022/03/12 03:10:09;;;;;;;1.70;1.50;;;;;;;;;;4947337;29;20237;-61
2022/03/12 03:12:36;;;;;;;2.90;1.90;;;;;;;;;;4939882;29;20208;-61
2022/03/12 03:15:03;;;;;;;2.50;1.40;;;;;;;;;;4946281;29;20206;-61
2022/03/12 03:17:35;;;;;;;1.63;1.47;;;;;;;;;;4936647;29;20762;-61
2022/03/12 03:20:02;;;;;;;2.13;1.70;;;;;;;;;;4944198;29;20644;-61
2022/03/12 03:22:29;;;;;;;1.80;1.70;;;;;;;;;;4940281;28;20304;-61
2022/03/12 03:24:56;;;;;;;2.17;1.90;;;;;;;;;;4934349;29;20673;-61
2022/03/12 03:27:23;;;;;;;2.43;1.80;;;;;;;;;;4933844;28;20262;-61
2022/03/12 03:29:50;;;;;;;3.10;1.93;;;;;;;;;;4938466;29;20233;-61
2022/03/12 03:32:18;;;;;;;2.43;2.00;;;;;;;;;;4937764;29;20207;-61
2022/03/12 03:34:46;;;;;;;2.93;1.77;;;;;;;;;;4952630;29;21077;-61
2022/03/12 03:37:13;;;;;;;1.93;1.70;;;;;;;;;;4946157;28;20312;-61
2022/03/12 03:39:41;;;;;;;1.73;1.63;;;;;;;;;;4948012;28;20680;-61
2022/03/12 03:42:08;;;;;;;3.43;2.47;;;;;;;;;;4943893;29;20208;-60
2022/03/12 03:44:35;;;;;;;3.30;2.13;;;;;;;;;;4939823;29;20206;-60
2022/03/12 03:47:02;;;;;;;1.53;1.43;;;;;;;;;;4952363;28;20211;-60
2022/03/12 03:49:29;;;;;;;3.13;2.30;;;;;;;;;;4948928;28;20227;-59
2022/03/12 03:51:58;;;;;;;3.83;1.90;;;;;;;;;;4940916;29;20212;-59
2022/03/12 03:54:28;;;;;;;4.00;2.47;;;;;;;;;;4945774;29;20212;-59
2022/03/12 03:56:55;;;;;;;2.00;1.90;;;;;;;;;;4946994;29;20213;-60
2022/03/12 03:59:22;;;;;;;2.57;2.33;;;;;;;;;;4951180;29;20234;-59
2022/03/12 04:01:50;;;;;;;1.40;1.30;;;;;;;;;;4944381;29;20200;-60
2022/03/12 04:04:18;;;;;;;1.70;1.60;;;;;;;;;;4942936;29;20233;-59
2022/03/12 04:06:45;;;;;;;4.27;2.60;;;;;;;;;;4953577;29;20232;-60
2022/03/12 04:09:13;;;;;;;2.27;2.07;;;;;;;;;;4950978;29;20213;-60
2022/03/12 04:11:42;;;;;;;3.13;1.50;;;;;;;;;;4938200;29;20235;-61
2022/03/12 04:14:09;;;;;;;2.57;1.87;;;;;;;;;;4948079;29;20207;-61
2022/03/12 04:16:36;;;;;;;3.40;1.50;;;;;;;;;;4942320;28;20239;-61
2022/03/12 04:19:06;;;;;;;1.70;1.60;;;;;;;;;;4949807;28;20207;-61
2022/03/12 04:21:34;;;;;;;2.90;1.80;;;;;;;;;;4943012;29;20698;-61
2022/03/12 04:24:02;;;;;;;2.13;1.83;;;;;;;;;;4944595;29;20222;-61
2022/03/12 04:26:35;;;;;;;1.83;1.60;;;;;;;;;;4945931;28;20222;-61
2022/03/12 04:29:02;;;;;;;4.23;2.50;;;;;;;;;;4947945;29;20243;-61
2022/03/12 04:31:30;;;;;;;1.60;1.50;;;;;;;;;;4938043;29;20248;-61
2022/03/12 04:33:57;;;;;;;2.67;1.80;;;;;;;;;;4949454;28;20211;-61
2022/03/12 04:36:25;;;;;;;2.10;1.90;;;;;;;;;;4951963;28;20210;-62
2022/03/12 04:38:52;;;;;;;1.93;1.83;;;;;;;;;;4939102;29;20760;-60
2022/03/12 04:41:19;;;;;;;5.00;1.87;;;;;;;;;;4939145;29;20203;-61
2022/03/12 04:43:50;;;;;;;2.30;1.90;;;;;;;;;;4937766;29;20288;-61
2022/03/12 04:46:17;;;;;;;1.70;1.60;;;;;;;;;;4941009;29;20220;-61
2022/03/12 04:48:44;;;;;;;3.33;1.70;;;;;;;;;;4940070;29;20275;-61
2022/03/12 04:51:12;;;;;;;2.00;1.80;;;;;;;;;;4942552;29;20768;-60
2022/03/12 04:53:39;;;;;;;2.87;1.87;;;;;;;;;;4938992;29;20274;-62
2022/03/12 04:56:06;;;;;;;3.93;1.40;;;;;;;;;;4940624;29;20370;-61
2022/03/12 04:58:33;;;;;;;2.47;1.83;;;;;;;;;;4938503;29;20733;-62
2022/03/12 05:01:01;;;;;;;6.63;1.57;;;;;;;;;;4939815;29;20208;-62
2022/03/12 05:03:29;;;;;;;1.60;1.47;;;;;;;;;;4945475;29;20203;-61
2022/03/12 05:05:58;;;;;;;2.93;1.70;;;;;;;;;;4946488;29;20625;-62
2022/03/12 05:08:28;;;;;;;0.83;0.83;;;;;;;;;;4939101;29;20219;-62
2022/03/12 05:10:57;;;;;;;4.13;1.83;;;;;;;;;;4947756;29;20298;-61
2022/03/12 05:13:25;;;;;;;2.20;1.10;;;;;;;;;;4942708;29;20674;-61
2022/03/12 05:15:53;;;;;;;1.77;1.07;;;;;;;;;;4941844;29;20338;-59
2022/03/12 05:18:23;;;;;;;4.23;1.77;;;;;;;;;;4942812;29;20215;-60
2022/03/12 05:20:51;;;;;;;1.50;1.40;;;;;;;;;;4947906;29;20238;-62
2022/03/12 05:23:19;;;;;;;3.50;1.60;;;;;;;;;;4945009;28;20208;-60
2022/03/12 05:25:47;;;;;;;2.27;1.17;;;;;;;;;;4948107;29;21034;-60
2022/03/12 05:28:15;;;;;;;3.73;1.50;;;;;;;;;;4939411;29;20256;-60
2022/03/12 05:30:43;;;;;;;2.13;2.03;;;;;;;;;;4946434;28;20717;-60
2022/03/12 05:33:11;;;;;;;1.60;1.47;;;;;;;;;;4945339;29;20234;-60
2022/03/12 05:35:40;;;;;;;1.73;1.50;;;;;;;;;;4941454;29;20220;-60
2022/03/12 05:38:07;;;;;;;2.07;1.70;;;;;;;;;;4942095;29;20213;-61
2022/03/12 05:40:39;;;;;;;2.93;1.67;;;;;;;;;;4952219;29;20292;-62
2022/03/12 05:43:10;;;;;;;0.43;0.43;;;;;;;;;;4940644;29;20214;-61
2022/03/12 05:45:38;;;;;;;2.70;1.53;;;;;;;;;;4942724;29;20214;-61
2022/03/12 05:48:06;;;;;;;2.77;1.33;;;;;;;;;;4951224;29;20206;-61
2022/03/12 05:50:33;;;;;;;2.27;1.40;;;;;;;;;;4950179;29;20235;-61
2022/03/12 05:53:02;;;;;;;4.87;2.20;;;;;;;;;;4934976;29;20763;-62
2022/03/12 05:55:29;;;;;;;1.97;1.77;;;;;;;;;;4947332;29;20390;-61
2022/03/12 05:57:57;;;;;;;1.23;1.23;;;;;;;;;;4950883;29;20302;-61
2022/03/12 06:00:24;;;;;;;2.07;1.43;;;;;;;;;;4942810;28;20236;-61
2022/03/12 06:02:52;;;;;;;2.63;1.37;;;;;;;;;;4938622;29;20214;-62
2022/03/12 06:05:20;;;;;;;1.70;1.13;;;;;;;;;;4937816;29;20265;-61
2022/03/12 06:07:48;;;;;;;1.73;1.27;;;;;;;;;;4943959;28;20217;-61
2022/03/12 06:10:17;;;;;;;2.27;1.73;;;;;;;;;;4947117;29;20227;-62
2022/03/12 06:12:45;;;;;;;1.20;1.17;;;;;;;;;;4939085;29;20218;-62
2022/03/12 06:15:13;;;;;;;2.07;1.30;;;;;;;;;;4933047;29;20586;-62
2022/03/12 06:17:40;;;;;;;2.93;1.80;;;;;;;;;;4936477;29;20205;-62
2022/03/12 06:20:10;;;;;;;1.87;1.73;;;;;;;;;;4938742;28;20210;-62
2022/03/12 06:22:37;;;;;;;3.60;1.73;;;;;;;;;;4957793;28;20216;-62
2022/03/12 06:25:05;;;;;;;3.33;1.70;;;;;;;;;;4959793;28;20221;-62
2022/03/12 06:27:33;;;;;;;1.53;0.80;;;;;;;;;;4954375;28;20264;-62
2022/03/12 06:30:00;;;;;;;2.27;1.30;;;;;;;;;;4957490;28;20206;-62
2022/03/12 06:32:29;;;;;;;2.37;1.40;;;;;;;;;;4957004;28;20209;-62
2022/03/12 06:34:56;;;;;;;1.57;1.47;;;;;;;;;;4957247;28;20203;-62
2022/03/12 06:37:23;;;;;;;6.77;1.53;;;;;;;;;;4958732;28;20209;-62
2022/03/12 06:39:51;;;;;;;1.80;1.63;;;;;;;;;;4960921;28;20211;-62
2022/03/12 06:42:19;;;;;;;1.77;1.50;;;;;;;;;;4954408;28;20290;-62
2022/03/12 06:44:48;;;;;;;2.43;1.67;;;;;;;;;;4961634;28;20778;-62
2022/03/12 06:47:16;;;;;;;1.37;1.27;;;;;;;;;;4955375;28;20211;-60
2022/03/12 06:49:43;;;;;;;0.83;0.83;;;;;;;;;;4959903;28;20629;-60
2022/03/12 06:52:10;;;;;;;0.80;0.80;;;;;;;;;;4955987;28;20286;-60
2022/03/12 06:54:38;;;;;;;1.73;1.63;;;;;;;;;;4959582;28;20211;-60
2022/03/12 06:57:05;;;;;;;2.47;1.50;;;;;;;;;;4957305;28;20696;-60
2022/03/12 06:59:33;;;;;;;3.57;1.80;;;;;;;;;;4957023;28;20205;-60
2022/03/12 07:02:01;;;;;;;2.90;1.00;;;;;;;;;;4957595;28;20258;-60
2022/03/12 07:04:28;;;;;;;2.33;1.37;;;;;;;;;;4959513;28;20207;-60
2022/03/12 07:06:55;;;;;;;1.73;1.60;;;;;;;;;;4951461;28;20670;-61
2022/03/12 07:09:22;;;;;;;2.67;1.33;;;;;;;;;;4959272;28;20203;-60
2022/03/12 07:11:50;;;;;;;2.87;1.50;;;;;;;;;;4959776;28;20635;-60
2022/03/12 07:14:17;;;;;;;1.80;1.70;;;;;;;;;;4958260;28;20263;-60
2022/03/12 07:16:44;;;;;;;1.33;1.20;;;;;;;;;;4957792;28;20199;-60
2022/03/12 07:19:13;;;;;;;1.90;1.67;;;;;;;;;;4956591;28;20229;-61
2022/03/12 07:21:40;;;;;;;1.30;1.30;;;;;;;;;;4958785;28;20617;-60
2022/03/12 07:24:07;;;;;;;5.73;1.63;;;;;;;;;;4956566;28;20208;-61
2022/03/12 07:26:34;;;;;;;2.27;1.60;;;;;;;;;;4958998;28;20310;-60
2022/03/12 07:29:01;;;;;;;1.57;1.47;;;;;;;;;;4956923;28;20728;-61
2022/03/12 07:31:28;;;;;;;0.50;0.50;;;;;;;;;;4952219;28;20227;-63
2022/03/12 07:33:55;;;;;;;1.60;1.50;;;;;;;;;;4956465;28;20211;-61
2022/03/12 07:36:23;;;;;;;4.40;2.20;;;;;;;;;;4953257;28;20244;-61
2022/03/12 07:38:50;;;;;;;0.97;0.97;;;;;;;;;;4956624;28;20599;-63
2022/03/12 07:41:18;;;;;;;3.47;2.57;;;;;;;;;;4953863;28;20214;-61
2022/03/12 07:43:45;;;;;;;2.20;1.83;;;;;;;;;;4958793;28;20216;-61
2022/03/12 07:46:12;;;;;;;2.20;1.07;;;;;;;;;;4957170;28;20221;-61
2022/03/12 07:48:39;;;;;;;2.57;1.20;;;;;;;;;;4957650;28;20206;-62
2022/03/12 07:51:06;;;;;;;3.20;1.87;;;;;;;;;;4955621;28;20225;-60
2022/03/12 07:53:36;;;;;;;1.60;1.50;;;;;;;;;;4942524;28;20221;-60
2022/03/12 07:56:04;;;;;;;1.63;0.97;;;;;;;;;;4939373;28;20697;-59
2022/03/12 07:58:31;;;;;;;2.83;1.87;;;;;;;;;;4932516;29;20220;-59
2022/03/12 08:00:59;;;;;;;1.73;1.63;;;;;;;;;;4943939;29;20211;-59
2022/03/12 08:03:26;;;;;;;2.50;2.23;;;;;;;;;;4946010;29;20245;-60
2022/03/12 08:05:53;;;;;;;3.13;2.13;;;;;;;;;;4935430;28;20270;-62
2022/03/12 08:08:21;;;;;;;2.80;1.87;;;;;;;;;;4935392;29;20218;-61
2022/03/12 08:13:35;;;;;;;1.53;1.43;;;;;;;;;;4946026;29;21054;-60
2022/03/12 08:16:04;;;;;;;1.70;1.60;;;;;;;;;;4946083;28;20677;-61
2022/03/12 08:18:31;;;;;;;2.87;1.70;;;;;;;;;;4949047;29;20274;-61
2022/03/12 08:20:58;;;;;;;1.37;1.27;;;;;;;;;;4947978;29;20267;-61
2022/03/12 08:23:25;;;;;;;3.10;1.83;;;;;;;;;;4949320;29;20602;-59
2022/03/12 08:25:54;;;;;;;2.60;1.77;;;;;;;;;;4946609;29;20984;-61
2022/03/12 08:28:21;;;;;;;4.10;0.97;;;;;;;;;;4938770;29;20246;-61
2022/03/12 08:30:48;;;;;;;1.50;1.40;;;;;;;;;;4941248;29;20223;-61
2022/03/12 08:33:17;;;;;;;2.27;2.00;;;;;;;;;;4949161;29;20211;-61
2022/03/12 08:35:44;;;;;;;1.03;0.80;;;;;;;;;;4939037;29;20296;-61
2022/03/12 08:38:11;;;;;;;1.50;1.37;;;;;;;;;;4937466;29;20218;-71
2022/03/12 08:40:38;;;;;;;2.60;2.17;;;;;;;;;;4941031;29;20353;-62
2022/03/12 08:43:07;;;;;;;2.50;1.70;;;;;;;;;;4948730;29;20214;-61
2022/03/12 08:45:34;;;;;;;1.33;1.07;;;;;;;;;;4948190;29;20294;-60
2022/03/12 08:48:01;;;;;;;3.57;2.30;;;;;;;;;;4948430;29;20222;-61
2022/03/12 08:50:28;;;;;;;2.53;1.80;;;;;;;;;;4945189;29;20212;-61
2022/03/12 08:53:15;;;;;;;2.37;1.90;;;;;;;;;;4942038;29;20242;-61
2022/03/12 08:55:42;;;;;;;1.07;0.97;;;;;;;;;;4948149;28;20212;-61
2022/03/12 08:58:11;;;;;;;3.30;2.20;;;;;;;;;;4948688;29;20218;-60
2022/03/12 09:00:38;;;;;;;3.30;1.93;;;;;;;;;;4947579;29;20242;-61
2022/03/12 09:03:07;;;;;;;1.77;1.67;;;;;;;;;;4934872;29;20208;-62
2022/03/12 09:05:34;;;;;;;2.63;2.43;;;;;;;;;;4929735;29;20302;-60
2022/03/12 09:08:03;;;;;;;2.97;2.70;;;;;;;;;;4946880;29;20474;-62
2022/03/12 09:10:30;;;;;;;3.97;2.30;;;;;;;;;;4947117;29;20354;-61
2022/03/12 09:12:58;;;;;;;2.10;2.00;;;;;;;;;;4947699;29;20235;-61
2022/03/12 09:15:26;;;;;;;1.67;1.57;;;;;;;;;;4944834;28;20211;-61
2022/03/12 09:17:53;;;;;;;3.27;1.87;;;;;;;;;;4941289;29;20373;-61
2022/03/12 09:20:21;;;;;;;3.03;1.90;;;;;;;;;;4945952;29;20218;-62
2022/03/12 09:22:48;;;;;;;3.00;2.33;;;;;;;;;;4945787;29;20696;-62
2022/03/12 09:25:15;;;;;;;2.23;2.07;;;;;;;;;;4932468;29;20231;-60
2022/03/12 09:27:43;;;;;;;3.50;2.10;;;;;;;;;;4940986;28;20249;-60
2022/03/12 09:30:11;;;;;;;3.10;2.10;;;;;;;;;;4946460;29;20232;-60
2022/03/12 09:32:39;;;;;;;4.73;2.53;;;;;;;;;;4935082;29;20242;-60
2022/03/12 09:35:07;;;;;;;3.13;2.63;;;;;;;;;;4928298;29;20230;-60
2022/03/12 09:37:34;;;;;;;2.50;2.33;;;;;;;;;;4930965;29;20644;-60
2022/03/12 09:40:02;;;;;;;2.63;1.43;;;;;;;;;;4939380;29;20243;-59
2022/03/12 09:42:30;;;;;;;3.00;2.30;;;;;;;;;;4946526;28;20211;-61
2022/03/12 09:44:58;;;;;;;3.60;2.40;;;;;;;;;;4947588;29;20226;-60
2022/03/12 09:47:25;;;;;;;2.13;2.03;;;;;;;;;;4934075;29;20673;-59
2022/03/12 09:49:53;;;;;;;1.30;1.20;;;;;;;;;;4947400;29;20223;-60
2022/03/12 09:52:20;;;;;;;3.03;2.33;;;;;;;;;;4946455;29;20230;-60
2022/03/12 09:54:49;;;;;;;2.33;2.13;;;;;;;;;;4934880;29;20215;-60
2022/03/12 09:57:16;;;;;;;1.50;1.40;;;;;;;;;;4926091;29;20557;-60
2022/03/12 09:59:43;;;;;;;3.80;2.47;;;;;;;;;;4947059;29;20215;-59
2022/03/12 10:02:10;;;;;;;2.73;2.53;;;;;;;;;;4937654;29;20286;-60
2022/03/12 10:04:37;;;;;;;3.87;2.67;;;;;;;;;;4946642;29;20211;-61
2022/03/12 10:07:09;;;;;;;3.70;2.40;;;;;;;;;;4947021;29;20678;-61
2022/03/12 10:09:36;;;;;;;3.73;2.37;;;;;;;;;;4942428;28;20326;-63
2022/03/12 10:12:04;;;;;;;5.20;1.80;;;;;;;;;;4940834;29;20231;-61
2022/03/12 10:14:31;;;;;;;1.57;1.10;;;;;;;;;;4940415;29;20944;-61
2022/03/12 10:17:00;;;;;;;2.30;1.80;;;;;;;;;;4942432;29;20422;-62
2022/03/12 10:19:27;;;;;;;2.87;2.47;;;;;;;;;;4934250;29;20216;-60
2022/03/12 10:21:54;;;;;;;2.40;2.20;;;;;;;;;;4943169;29;20603;-61
2022/03/12 10:24:24;;;;;;;3.20;2.90;;;;;;;;;;4946956;29;20594;-61
2022/03/12 10:26:51;;;;;;;2.30;2.20;;;;;;;;;;4946575;29;20222;-60
2022/03/12 10:29:19;;;;;;;4.00;2.90;;;;;;;;;;4941299;28;20626;-61
2022/03/12 10:31:46;;;;;;;3.03;1.87;;;;;;;;;;4947506;28;20346;-60
2022/03/12 10:34:18;;;;;;;1.60;1.50;;;;;;;;;;4946921;29;20235;-60
2022/03/12 10:36:45;;;;;;;2.77;2.63;;;;;;;;;;4944802;29;20234;-60
2022/03/12 10:39:13;;;;;;;2.63;2.43;;;;;;;;;;4931699;28;20876;-60
2022/03/12 10:41:41;;;;;;;2.27;2.07;;;;;;;;;;4927102;29;20672;-60
2022/03/12 10:44:09;;;;;;;2.27;2.07;;;;;;;;;;4927966;29;20207;-61
2022/03/12 10:46:41;;;;;;;2.50;2.30;;;;;;;;;;4944067;28;20329;-61
2022/03/12 10:49:08;;;;;;;2.93;2.70;;;;;;;;;;4944660;29;20219;-62
2022/03/12 10:51:37;;;;;;;4.13;2.50;;;;;;;;;;4927139;29;20215;-61
2022/03/12 10:54:07;;;;;;;6.10;2.67;;;;;;;;;;4935107;29;20215;-62
2022/03/12 10:56:48;;;;;;;6.53;2.77;;;;;;;;;;4927617;29;20211;-63
2022/03/12 10:59:17;;;;;;;3.70;2.40;;;;;;;;;;4931957;29;20234;-62
2022/03/12 11:01:48;;;;;;;7.67;3.20;;;;;;;;;;4929533;29;20211;-62
2022/03/12 11:04:18;;;;;;;2.87;2.60;;;;;;;;;;4946474;29;20223;-62
2022/03/12 11:06:46;;;;;;;2.73;2.53;;;;;;;;;;4932590;29;20211;-61
2022/03/12 11:09:18;;;;;;;2.80;2.30;;;;;;;;;;4942262;29;20430;-61
2022/03/12 11:11:46;;;;;;;3.17;2.40;;;;;;;;;;4927232;29;20324;-60
2022/03/12 11:14:19;;;;;;;3.17;2.20;;;;;;;;;;4930912;29;20226;-61
2022/03/12 11:16:51;;;;;;;3.40;2.60;;;;;;;;;;4930218;29;20229;-61
2022/03/12 11:19:37;;;;;;;1.77;1.67;;;;;;;;;;4944957;29;20214;-61
2022/03/12 11:22:07;;;;;;;2.50;2.30;;;;;;;;;;4943833;29;20211;-60
2022/03/12 11:24:44;;;;;;;2.97;2.63;;;;;;;;;;4946520;29;20226;-61
2022/03/12 11:27:14;;;;;;;5.93;3.07;;;;;;;;;;4944831;29;20924;-61
2022/03/12 11:29:41;;;;;;;3.57;2.80;;;;;;;;;;4945090;29;20215;-61
2022/03/12 11:32:09;;;;;;;4.33;2.63;;;;;;;;;;4928890;29;20235;-61
2022/03/12 11:34:39;;;;;;;4.80;2.83;;;;;;;;;;4930629;29;20290;-62
2022/03/12 11:37:08;;;;;;;3.13;2.83;;;;;;;;;;4939478;29;20259;-61
2022/03/12 11:39:39;;;;;;;3.60;2.73;;;;;;;;;;4937612;29;20215;-61
2022/03/12 11:42:11;;;;;;;3.60;3.27;;;;;;;;;;4945355;29;20199;-61
2022/03/12 11:44:40;;;;;;;4.90;3.20;;;;;;;;;;4944639;29;20208;-61
2022/03/12 11:47:08;;;;;;;4.33;3.47;;;;;;;;;;4945261;29;20215;-61
2022/03/12 11:49:36;;;;;;;4.27;2.80;;;;;;;;;;4942156;29;20919;-60
2022/03/12 11:52:03;;;;;;;4.07;3.00;;;;;;;;;;4943959;28;20765;-60
2022/03/12 11:54:31;;;;;;;4.60;3.47;;;;;;;;;;4949593;29;20271;-60
2022/03/12 11:56:59;;;;;;;4.17;3.20;;;;;;;;;;4948404;28;20839;-60
2022/03/12 11:59:26;;;;;;;4.27;3.57;;;;;;;;;;4949280;29;20234;-60
2022/03/12 12:02:05;;;;;;;5.00;3.50;;;;;;;;;;4939133;29;20215;-61
2022/03/12 12:04:33;;;;;;;4.30;2.97;;;;;;;;;;4931504;29;20207;-61
2022/03/12 12:07:00;;;;;;;4.00;3.10;;;;;;;;;;4944041;29;20791;-61
2022/03/12 12:09:28;;;;;;;5.40;3.80;;;;;;;;;;4946868;28;20231;-61
2022/03/12 12:11:55;;;;;;;3.83;2.67;;;;;;;;;;4942391;28;20302;-59
2022/03/12 12:14:24;;;;;;;3.93;3.20;;;;;;;;;;4949514;28;20712;-60
2022/03/12 12:16:51;;;;;;;6.93;3.37;;;;;;;;;;4941455;28;20759;-61
2022/03/12 12:19:19;;;;;;;3.90;3.50;;;;;;;;;;4946844;29;20756;-60
2022/03/12 12:21:46;;;;;;;3.90;3.20;;;;;;;;;;4945115;29;20552;-61
2022/03/12 12:24:26;;;;;;;3.53;3.20;;;;;;;;;;4937593;28;20274;-60
2022/03/12 12:27:01;;;;;;;3.30;2.97;;;;;;;;;;4943051;28;20218;-60
2022/03/12 12:29:45;;;;;;;4.20;3.20;;;;;;;;;;4949732;29;20206;-59
2022/03/12 12:32:13;;;;;;;3.30;3.00;;;;;;;;;;4936488;28;20215;-61
2022/03/12 12:34:58;;;;;;;4.00;3.50;;;;;;;;;;4942143;28;20277;-60
2022/03/12 12:37:40;;;;;;;4.13;3.33;;;;;;;;;;4941777;28;20219;-60
2022/03/12 12:40:14;;;;;;;3.55;3.10;;;;;;;;;;4948935;29;20219;-60
2022/03/12 12:42:42;;;;;;;3.35;3.00;;;;;;;;;;4947513;29;20202;-60
2022/03/12 12:45:12;;;;;;;4.40;3.45;;;;;;;;;;4948814;29;20211;-61
2022/03/12 12:47:39;;;;;;;4.00;3.17;;;;;;;;;;4948887;28;20766;-67
2022/03/12 12:50:18;;;;;;;5.25;3.17;;;;;;;;;;4945276;28;20223;-59
2022/03/12 12:53:09;;;;;;;4.20;3.83;;;;;;;;;;4939336;29;20867;-63
2022/03/12 12:55:37;;;;;;;5.87;4.40;;;;;;;;;;4942097;28;20459;-60
2022/03/12 12:58:04;;;;;;;5.90;3.95;;;;;;;;;;4935273;29;20226;-60
2022/03/12 13:00:34;;;;;;;4.18;3.78;;;;;;;;;;4944643;29;20221;-61
2022/03/12 13:03:04;;;;;;;6.22;3.58;;;;;;;;;;4944374;28;20218;-61
2022/03/12 13:05:45;;;;;;;3.60;3.10;;;;;;;;;;4943499;28;20694;-60
2022/03/12 13:08:14;;;;;;;4.75;3.33;;;;;;;;;;4942486;28;20214;-60
2022/03/12 13:10:42;;;;;;;4.43;3.17;;;;;;;;;;4948568;29;20709;-60
2022/03/12 13:13:10;;;;;;;3.50;3.20;;;;;;;;;;4946298;28;20317;-61
2022/03/12 13:15:37;;;;;;;4.20;3.72;;;;;;;;;;4947606;29;20302;-62
2022/03/12 13:18:12;;;;;;;4.50;3.15;;;;;;;;;;4946664;29;20222;-61
2022/03/12 13:20:43;;;;;;;2.88;2.70;;;;;;;;;;4938462;28;20810;-61
2022/03/12 13:23:10;;;;;;;3.17;2.97;;;;;;;;;;4945651;29;20221;-63
2022/03/12 13:25:53;;;;;;;6.20;3.17;;;;;;;;;;4946737;29;20231;-62
2022/03/12 13:28:38;;;;;;;4.07;3.50;;;;;;;;;;4941534;28;20234;-63
2022/03/12 13:31:35;;;;;;;3.47;3.10;;;;;;;;;;4936244;28;20219;-62
2022/03/12 13:34:04;;;;;;;3.88;3.20;;;;;;;;;;4876742;29;20241;-62
2022/03/12 13:36:33;;;;;;;3.67;3.38;;;;;;;;;;4926652;29;20207;-62
2022/03/12 13:39:00;;;;;;;6.50;3.50;;;;;;;;;;4947126;29;20207;-63
2022/03/12 13:41:29;;;;;;;3.78;3.42;;;;;;;;;;4941555;29;20211;-61
2022/03/12 13:43:57;;;;;;;3.87;3.47;;;;;;;;;;4938423;29;20214;-62
2022/03/12 13:46:24;;;;;;;5.57;3.80;;;;;;;;;;4933984;29;20824;-62
2022/03/12 13:49:04;;;;;;;4.22;3.80;;;;;;;;;;4943965;29;20636;-63
2022/03/12 13:51:34;;;;;;;4.17;3.43;;;;;;;;;;4941598;29;20218;-63
2022/03/12 13:54:02;;;;;;;4.33;3.77;;;;;;;;;;4940924;28;20251;-61
2022/03/12 13:56:32;;;;;;;4.10;3.72;;;;;;;;;;4946439;29;20215;-60
2022/03/12 13:59:04;;;;;;;7.87;3.73;;;;;;;;;;4946557;29;20211;-64
2022/03/12 14:01:35;;;;;;;3.50;3.08;;;;;;;;;;4946869;29;20210;-63
2022/03/12 14:04:03;;;;;;;5.10;3.47;;;;;;;;;;4945487;29;20199;-62
2022/03/12 14:06:34;;;;;;;4.68;3.70;;;;;;;;;;4935082;29;20299;-62
2022/03/12 14:09:02;;;;;;;5.18;3.95;;;;;;;;;;4946590;29;20211;-61
2022/03/12 14:11:35;;;;;;;4.40;3.88;;;;;;;;;;4946379;29;20213;-61
2022/03/12 14:14:03;;;;;;;3.80;3.33;;;;;;;;;;4944612;28;20311;-61
2022/03/12 14:16:30;;;;;;;3.42;3.13;;;;;;;;;;4947183;29;20210;-60
2022/03/12 14:19:00;;;;;;;3.38;3.08;;;;;;;;;;4947724;29;20218;-61
2022/03/12 14:21:37;;;;;;;3.90;3.50;;;;;;;;;;4946540;29;20322;-63
2022/03/12 14:24:08;;;;;;;3.45;3.15;;;;;;;;;;4946659;29;20228;-62
2022/03/12 14:26:44;;;;;;;4.50;3.33;;;;;;;;;;4947612;29;20227;-61
2022/03/12 14:29:11;;;;;;;4.00;3.63;;;;;;;;;;4942260;29;20640;-62
2022/03/12 14:31:39;;;;;;;4.20;3.55;;;;;;;;;;4927654;29;20979;-61
2022/03/12 14:34:07;;;;;;;3.45;3.15;;;;;;;;;;4928456;29;20231;-61
2022/03/12 14:36:34;;;;;;;8.90;3.90;;;;;;;;;;4932618;29;20207;-61
2022/03/12 14:39:01;;;;;;;4.43;3.60;;;;;;;;;;4945991;29;20257;-61
2022/03/12 14:41:28;;;;;;;5.55;3.60;;;;;;;;;;4945844;28;20210;-61
2022/03/12 14:43:57;;;;;;;6.03;3.63;;;;;;;;;;4944967;29;20211;-62
2022/03/12 14:46:24;;;;;;;4.40;4.00;;;;;;;;;;4946176;29;20211;-62
2022/03/12 14:48:51;;;;;;;3.95;3.55;;;;;;;;;;4945983;29;20211;-61
2022/03/12 14:51:19;;;;;;;5.00;4.07;;;;;;;;;;4945578;29;20211;-61
2022/03/12 14:53:48;;;;;;;5.30;4.10;;;;;;;;;;4944627;29;20268;-60